Miami, Florida
Traffic Map
Current Weather Conditions
Miami, Florida
Few Clouds
Few Clouds
26°
Feels Like: 27°
Wind Chill: 26° Ceiling: Unl
Heat Index: 27° Visibility: 10mi
Dew Point: 15° Wind: 7mph
Humidity: 50% Direction: 110° (ESE)
Pressure: 29.92in Gusts: 0mph
Raw Report DataKMIA 261353Z 11006KT 10SM FEW045 26/15 A2992 RMK AO2 SLP132 T02610150
Traffic Incident Summary
Active as of:
Severity:
Category:
InformationThere was an issue retrieving the traffic information for this location. Please try a different location or try again shortly.
Advertisements
Track Severe Weather on mobile